Aviation Digital Data Service (ADDS)

Output produced by METARs form (1327 UTC 24 October 2014)
found at http://aviationweather.gov/adds/metars/
 
KRDU 241141Z 2412/2512 27004KT P6SM BKN150